Data for 01/12/2011

Time Sea-Level Adjusted Pressure Absolute Pressure Temperature Relative Humidity Dew Point   
(mb) (inHg) (mb) (inHg) (C) (F) (%) (C) (F)
00:05 1023 30.21 852 25.16 -13.7 7.4 78 -16.8 1.8
00:10 1023 30.21 852 25.16 -13.7 7.3 79 -16.7 1.9
00:15 1023 30.21 852 25.16 -13.7 7.4 79 -16.6 2.1
00:20 1023 30.21 852 25.16 -13.8 7.2 78 -16.8 1.8
00:25 1023 30.21 852 25.16 -14 6.7 80 -16.7 1.9
00:30 1023 30.21 852 25.16 -14.1 6.6 80 -16.8 1.7
00:35 1023 30.21 852 25.16 -14.2 6.4 82 -16.7 1.9
00:40 1023 30.21 852 25.16 -14.2 6.4 81 -16.8 1.7
00:45 1023 30.21 852 25.16 -14.1 6.5 81 -16.7 2
00:50 1023 30.21 852 25.16 -14 6.8 81 -16.6 2.1
00:55 1023 30.21 852 25.16 -14 6.8 81 -16.6 2.1
01:00 1023 30.21 852 25.16 -14.1 6.7 81 -16.7 1.9
01:05 1023 30.21 852 25.16 -14.2 6.5 80 -16.9 1.6
01:10 1023 30.21 852 25.16 -14.1 6.7 80 -16.8 1.8
01:15 1023 30.21 852 25.16 -14.2 6.4 81 -16.8 1.8
01:20 1023 30.21 852 25.16 -14.2 6.5 80 -16.9 1.6
01:25 1023 30.21 852 25.16 -13.9 7 78 -16.9 1.5
01:30 1023 30.21 852 25.16 -13.8 7.2 78 -16.8 1.7
01:35 1023 30.21 852 25.16 -13.8 7.1 78 -16.8 1.8
01:40 1023 30.21 852 25.16 -13.8 7.2 79 -16.7 1.9
01:45 1023 30.21 852 25.16 -13.6 7.5 78 -16.6 2
01:50 1023 30.21 852 25.16 -13.4 7.9 77 -16.6 2.2
01:55 1023 30.21 852 25.16 -13.3 8.1 78 -16.4 2.5
02:00 1023 30.21 852 25.16 -13.3 8 78 -16.4 2.5
02:05 1023 30.21 852 25.16 -13.1 8.5 77 -16.3 2.7
02:10 1023 30.21 852 25.16 -12.6 9.3 76 -16 3.3
02:15 1023 30.21 852 25.16 -12.4 9.7 76 -15.9 3.4
02:20 1023 30.21 852 25.16 -12.3 9.8 76 -15.7 3.7
02:25 1023 30.21 852 25.16 -12 10.3 75 -15.6 4
02:30 1023 30.21 852 25.16 -12 10.5 74 -15.7 3.8
02:35 1023 30.21 852 25.16 -12.1 10.3 74 -15.8 3.6
02:40 1023 30.21 852 25.16 -12 10.4 75 -15.6 3.8
02:45 1023 30.21 852 25.16 -12 10.5 74 -15.6 3.9
02:50 1023 30.21 852 25.16 -11.9 10.5 75 -15.5 4.2
02:55 1023 30.21 852 25.16 -11.9 10.5 75 -15.6 4
03:00 1023 30.21 852 25.16 -12 10.4 76 -15.5 4.1
03:05 1023 30.21 852 25.16 -12.1 10.2 76 -15.6 4
03:10 1023 30.21 852 25.16 -12.3 9.9 77 -15.6 4
03:15 1022 30.18 852 25.16 -12.3 9.8 77 -15.5 4.1
03:20 1022 30.18 852 25.16 -12.4 9.7 77 -15.6 3.9
03:25 1022 30.18 852 25.16 -12.5 9.4 79 -15.5 4.1
03:30 1022 30.18 852 25.16 -12.6 9.4 81 -15.3 4.5
03:35 1022 30.18 851 25.13 -12.3 9.8 79 -15.2 4.6
03:40 1022 30.18 851 25.13 -12.2 10.1 78 -15.2 4.6
03:45 1022 30.18 851 25.13 -12.2 10.1 78 -15.3 4.5
03:50 1022 30.18 851 25.13 -12.2 10 77 -15.4 4.3
03:55 1022 30.18 851 25.13 -12.4 9.7 79 -15.4 4.3
04:00 1022 30.18 851 25.13 -12.4 9.6 79 -15.3 4.4
04:05 1022 30.18 851 25.13 -12.3 9.9 78 -15.4 4.3
04:10 1022 30.18 851 25.13 -12.3 9.8 78 -15.4 4.3
04:15 1022 30.18 851 25.13 -12.5 9.6 78 -15.6 4
04:20 1022 30.18 851 25.13 -12.8 8.9 80 -15.7 3.8
04:25 1022 30.18 851 25.13 -12.9 8.9 79 -15.8 3.6
04:30 1022 30.18 851 25.13 -12.9 8.7 80 -15.7 3.8
04:35 1022 30.18 851 25.13 -13.2 8.2 82 -15.7 3.8
04:40 1022 30.18 851 25.13 -13.1 8.5 82 -15.6 4
04:45 1022 30.18 851 25.13 -12.8 8.9 81 -15.4 4.2
04:50 1022 30.18 851 25.13 -12.8 9 82 -15.3 4.5
04:55 1022 30.18 851 25.13 -12.6 9.2 82 -15.1 4.8
05:00 1022 30.18 851 25.13 -12.1 10.2 79 -15.1 4.8
05:05 1022 30.18 851 25.13 -12.2 10 80 -15 5
05:10 1022 30.18 851 25.13 -11.9 10.6 79 -14.8 5.3
05:15 1022 30.18 851 25.13 -11.7 10.9 77 -15 4.9
05:20 1022 30.18 851 25.13 -11.8 10.8 77 -15 5
05:25 1022 30.18 851 25.13 -12 10.5 78 -15 5
05:30 1022 30.18 851 25.13 -12.1 10.3 79 -15.1 4.9
05:35 1022 30.18 851 25.13 -12.4 9.6 80 -15.2 4.6
05:40 1022 30.18 851 25.13 -11.9 10.5 77 -15.2 4.7
05:45 1021 30.15 851 25.13 -12.2 10.1 79 -15 4.9
05:50 1021 30.15 851 25.13 -12.6 9.4 82 -15.1 4.9
05:55 1021 30.15 851 25.13 -12.6 9.4 83 -14.9 5.3
06:00 1021 30.15 850 25.1 -12 10.3 80 -14.9 5.2
06:05 1021 30.15 850 25.1 -11.9 10.7 79 -14.7 5.5
06:10 1021 30.15 850 25.1 -11.7 11 76 -15 4.9
06:15 1021 30.15 850 25.1 -11.6 11.1 78 -14.8 5.4
06:20 1021 30.15 850 25.1 -11.2 11.8 77 -14.6 5.8
06:25 1021 30.15 850 25.1 -11.2 11.9 76 -14.6 5.7
06:30 1021 30.15 850 25.1 -11.2 11.9 76 -14.6 5.7
06:35 1021 30.15 850 25.1 -11.3 11.6 76 -14.7 5.5
06:40 1021 30.15 850 25.1 -11.4 11.4 76 -14.8 5.4
06:45 1021 30.15 850 25.1 -11.1 12 76 -14.5 5.8
06:50 1021 30.15 850 25.1 -11.1 12 77 -14.5 6
06:55 1021 30.15 850 25.1 -10.9 12.4 76 -14.3 6.2
07:00 1021 30.15 850 25.1 -10.3 13.4 73 -14.4 6.2
07:05 1021 30.15 850 25.1 -10.1 13.8 73 -14 6.8
07:10 1020 30.12 850 25.1 -10.3 13.4 74 -14.2 6.5
07:15 1020 30.12 850 25.1 -10.3 13.6 73 -14.2 6.5
07:20 1020 30.12 850 25.1 -10 14 73 -13.9 6.9
07:25 1020 30.12 850 25.1 -10 14 73 -14 6.8
07:30 1020 30.12 850 25.1 -10 13.9 74 -13.8 7.1
07:35 1020 30.12 850 25.1 -10.2 13.7 75 -13.9 7.1
07:40 1020 30.12 849 25.07 -10.5 13 78 -13.7 7.3
07:45 1020 30.12 849 25.07 -10.4 13.4 79 -13.3 8.1
07:50 1020 30.12 849 25.07 -10.3 13.4 79 -13.3 8.1
07:55 1020 30.12 849 25.07 -10.2 13.6 79 -13.2 8.3
08:00 1020 30.12 849 25.07 -10 14 76 -13.5 7.7
08:05 1020 30.12 849 25.07 -9.8 14.4 76 -13.2 8.2
08:10 1020 30.12 849 25.07 -9.5 15 75 -13.2 8.3
08:15 1020 30.12 849 25.07 -9.1 15.7 73 -13.1 8.5
08:20 1020 30.12 849 25.07 -9.7 14.6 76 -13.1 8.4
08:25 1020 30.12 849 25.07 -10 14 75 -13.6 7.5
08:30 1020 30.12 849 25.07 -10.5 13.1 76 -13.9 7
08:35 1020 30.12 849 25.07 -10.8 12.5 75 -14.4 6.1
08:40 1020 30.12 849 25.07 -11.4 11.6 77 -14.6 5.8
08:45 1020 30.12 849 25.07 -11.5 11.4 77 -14.7 5.5
08:50 1020 30.12 849 25.07 -11.6 11.1 76 -15 5.1
08:55 1020 30.12 849 25.07 -11.4 11.5 76 -14.7 5.5
09:00 1020 30.12 849 25.07 -11.1 12 74 -14.8 5.3
09:05 1020 30.12 849 25.07 -10.9 12.4 73 -14.9 5.2
09:10 1020 30.12 849 25.07 -10.9 12.5 73 -14.9 5.2
09:15 1020 30.12 849 25.07 -11 12.2 76 -14.5 5.9
09:20 1020 30.12 850 25.1 -11 12.2 76 -14.5 6
09:25 1020 30.12 850 25.1 -10.9 12.3 77 -14.2 6.5
09:30 1020 30.12 850 25.1 -10.8 12.5 77 -14.1 6.7
09:35 1020 30.12 850 25.1 -10.8 12.6 79 -13.8 7.2
09:40 1020 30.12 850 25.1 -10.7 12.7 81 -13.4 7.9
09:45 1020 30.12 849 25.07 -10.4 13.2 79 -13.4 7.9
09:50 1020 30.12 849 25.07 -10.2 13.7 79 -13.2 8.3
09:55 1020 30.12 849 25.07 -10 14.1 79 -12.9 8.8
10:00 1020 30.12 849 25.07 -9.7 14.6 76 -13.2 8.3
10:05 1020 30.12 849 25.07 -9.4 15.1 74 -13.2 8.3
10:10 1020 30.12 849 25.07 -9.2 15.5 73 -13.1 8.3
10:15 1020 30.12 849 25.07 -9 15.9 72 -13.1 8.5
10:20 1020 30.12 849 25.07 -8.6 16.5 70 -13.1 8.5
10:25 1020 30.12 849 25.07 -8.6 16.6 71 -12.9 8.8
10:30 1020 30.12 849 25.07 -8.4 16.9 71 -12.8 9
10:35 1020 30.12 849 25.07 -8.1 17.4 71 -12.5 9.4
10:40 1020 30.12 849 25.07 -7.9 17.8 69 -12.5 9.5
10:45 1020 30.12 849 25.07 -7.7 18.2 70 -12.2 10
10:50 1020 30.12 849 25.07 -7.5 18.5 68 -12.3 9.8
10:55 1020 30.12 849 25.07 -7.2 19 67 -12.2 10
11:00 1020 30.12 849 25.07 -6.7 19.9 65 -12.2 10
11:05 1020 30.12 849 25.07 -6.6 20 67 -11.8 10.7
11:10 1020 30.12 849 25.07 -6.5 20.3 65 -12 10.5
11:15 1020 30.12 849 25.07 -6.4 20.4 65 -12 10.4
11:20 1020 30.12 849 25.07 -6.4 20.5 63 -12.3 9.8
11:25 1020 30.12 849 25.07 -6 21.1 62 -12.2 10.1
11:30 1019 30.09 849 25.07 -5.7 21.7 64 -11.5 11.3
11:35 1019 30.09 849 25.07 -5.4 22.3 62 -11.6 11.2
11:40 1019 30.09 849 25.07 -5 23 62 -11.2 11.8
11:45 1019 30.09 849 25.07 -4.7 23.5 63 -10.8 12.6
11:50 1019 30.09 849 25.07 -4.5 23.9 62 -10.7 12.7
11:55 1019 30.09 848 25.04 -4.3 24.3 60 -10.8 12.5
12:00 1019 30.09 848 25.04 -4.3 24.3 62 -10.5 13.1
12:05 1019 30.09 848 25.04 -4 24.8 60 -10.7 12.7
12:10 1019 30.09 848 25.04 -3.8 25.2 59 -10.7 12.8
12:15 1019 30.09 848 25.04 -3.6 25.5 61 -10.1 13.7
12:20 1019 30.09 848 25.04 -3.9 25 61 -10.2 13.6
12:25 1019 30.09 848 25.04 -3.8 25.2 60 -10.5 13.1
12:30 1019 30.09 848 25.04 -3.6 25.6 58 -10.6 12.9
12:35 1019 30.09 848 25.04 -3.6 25.6 60 -10.2 13.7
12:40 1019 30.09 848 25.04 -3.6 25.6 60 -10.2 13.7
12:45 1019 30.09 848 25.04 -3.6 25.6 61 -10 14
12:50 1019 30.09 848 25.04 -3.3 26.1 61 -9.8 14.3
12:55 1019 30.09 848 25.04 -3.4 25.9 61 -9.9 14.1
13:00 1019 30.09 848 25.04 -3.6 25.4 62 -9.8 14.3
13:05 1018 30.06 848 25.04 -3.6 25.6 61 -10 14.1
13:10 1018 30.06 848 25.04 -3.6 25.5 62 -9.9 14.1
13:15 1018 30.06 847 25.01 -3.6 25.4 62 -9.9 14.2
13:20 1018 30.06 847 25.01 -3.6 25.5 63 -9.6 14.7
13:25 1018 30.06 847 25.01 -3.7 25.3 65 -9.5 15
13:30 1018 30.06 847 25.01 -3.6 25.6 64 -9.4 15
13:35 1018 30.06 847 25.01 -3.6 25.5 64 -9.5 14.9
13:40 1018 30.06 847 25.01 -3.4 25.8 62 -9.8 14.3
13:45 1018 30.06 847 25.01 -3.4 26 62 -9.6 14.7
13:50 1018 30.06 847 25.01 -3.4 26 63 -9.5 15
13:55 1018 30.06 847 25.01 -3.2 26.3 62 -9.4 15.1
14:00 1018 30.06 847 25.01 -2.8 27 63 -8.9 15.9
14:05 1018 30.06 847 25.01 -2.5 27.5 62 -8.9 16
14:10 1018 30.06 847 25.01 -2.4 27.7 61 -8.8 16.1
14:15 1018 30.06 847 25.01 -2.2 28.1 62 -8.5 16.7
14:20 1018 30.06 847 25.01 -2.1 28.2 62 -8.4 17
14:25 1018 30.06 847 25.01 -1.9 28.6 63 -8 17.5
14:30 1018 30.06 847 25.01 -1.8 28.7 63 -8.1 17.5
14:35 1018 30.06 847 25.01 -1.7 28.9 64 -7.8 18
14:40 1018 30.06 847 25.01 -1.6 29.1 64 -7.6 18.3
14:45 1018 30.06 847 25.01 -1.6 29.2 64 -7.5 18.5
14:50 1018 30.06 847 25.01 -1.3 29.6 63 -7.5 18.5
14:55 1018 30.06 847 25.01 -1.2 29.9 63 -7.4 18.7
15:00 1018 30.06 847 25.01 -1.3 29.7 64 -7.2 19.1
15:05 1018 30.06 847 25.01 -1.3 29.6 65 -7.1 19.2
15:10 1018 30.06 847 25.01 -1.3 29.6 65 -7.1 19.3
15:15 1018 30.06 847 25.01 -1.3 29.6 63 -7.4 18.6
15:20 1018 30.06 847 25.01 -1.4 29.5 63 -7.5 18.4
15:25 1018 30.06 847 25.01 -1.3 29.7 63 -7.4 18.7
15:30 1018 30.06 847 25.01 -1.2 29.9 63 -7.4 18.6
15:35 1018 30.06 847 25.01 -1 30.1 64 -7 19.4
15:40 1018 30.06 847 25.01 -1.1 30.1 62 -7.5 18.5
15:45 1018 30.06 847 25.01 -0.8 30.6 60 -7.6 18.3
15:50 1018 30.06 847 25.01 -0.6 31 61 -7.1 19.2
15:55 1018 30.06 847 25.01 -0.7 30.7 62 -7 19.3
16:00 1018 30.06 847 25.01 -0.7 30.8 60 -7.4 18.6
16:05 1018 30.06 847 25.01 -0.6 30.9 60 -7.4 18.7
16:10 1018 30.06 847 25.01 -0.6 30.8 63 -6.9 19.5
16:15 1018 30.06 847 25.01 -0.7 30.7 62 -7.2 19.1
16:20 1018 30.06 847 25.01 -0.6 31 61 -7.2 19.1
16:25 1018 30.06 847 25.01 -0.5 31.2 61 -7.2 19.1
16:30 1018 30.06 847 25.01 -0.1 31.9 60 -7 19.4
16:35 1018 30.06 847 25.01 0.1 32.1 59 -7 19.4
16:40 1018 30.06 847 25.01 0.1 32.2 58 -7.1 19.2
16:45 1017 30.03 847 25.01 0.9 33.5 55 -7.2 19
16:50 1017 30.03 847 25.01 1.3 34.3 55 -6.8 19.7
16:55 1017 30.03 847 25.01 1.2 34.2 54 -7 19.5
17:00 1017 30.03 847 25.01 1.6 34.9 54 -6.7 20
17:05 1017 30.03 847 25.01 1.6 34.9 54 -6.7 19.9
17:10 1017 30.03 846 24.98 2 35.6 52 -6.8 19.8
17:15 1017 30.03 846 24.98 2.5 36.6 51 -6.7 20
17:20 1017 30.03 847 25.01 2.5 36.5 53 -6.2 20.9
17:25 1017 30.03 847 25.01 2.3 36.1 53 -6.3 20.7
17:30 1017 30.03 847 25.01 2.3 36.2 53 -6.3 20.7
17:35 1017 30.03 847 25.01 2.5 36.5 54 -5.9 21.4
17:40 1018 30.06 847 25.01 2.3 36.1 54 -6.1 21.1
17:45 1018 30.06 847 25.01 2.7 36.9 52 -6.3 20.7
17:50 1018 30.06 847 25.01 3.2 37.8 50 -6.1 21.1
17:55 1018 30.06 847 25.01 3.3 38 53 -5.4 22.2
18:00 1018 30.06 847 25.01 3.1 37.6 52 -5.9 21.4
18:05 1018 30.06 847 25.01 3.5 38.2 52 -5.5 22.1
18:10 1018 30.06 847 25.01 3.5 38.2 52 -5.4 22.2
18:15 1018 30.06 847 25.01 3.7 38.6 51 -5.5 22.1
18:20 1018 30.06 847 25.01 3.8 38.8 51 -5.5 22.1
18:25 1018 30.06 847 25.01 3.4 38.1 53 -5.2 22.6
18:30 1018 30.06 847 25.01 3.4 38.1 53 -5.3 22.5
18:35 1018 30.06 847 25.01 3.6 38.5 52 -5.3 22.5
18:40 1018 30.06 847 25.01 3.5 38.2 52 -5.5 22.1
18:45 1018 30.06 847 25.01 3.1 37.6 53 -5.7 21.8
18:50 1018 30.06 847 25.01 2.9 37.2 55 -5.4 22.3
18:55 1018 30.06 847 25.01 2.9 37.2 55 -5.2 22.7
19:00 1018 30.06 847 25.01 3.1 37.5 56 -4.8 23.4
19:05 1018 30.06 847 25.01 3.8 38.8 54 -4.8 23.4
19:10 1018 30.06 847 25.01 4.3 39.7 52 -4.6 23.7
19:15 1018 30.06 847 25.01 4.3 39.8 52 -4.7 23.5
19:20 1018 30.06 847 25.01 4.5 40.2 53 -4.3 24.3
19:25 1018 30.06 847 25.01 4.6 40.2 52 -4.6 23.8
19:30 1018 30.06 847 25.01 4.6 40.2 52 -4.5 24
19:35 1018 30.06 847 25.01 4.5 40.1 53 -4.2 24.4
19:40 1018 30.06 847 25.01 4.4 39.9 52 -4.6 23.8
19:45 1018 30.06 847 25.01 4.4 39.9 53 -4.4 24.1
19:50 1018 30.06 847 25.01 4.3 39.8 53 -4.5 23.8
19:55 1018 30.06 847 25.01 4.4 39.9 53 -4.4 24
20:00 1017 30.03 847 25.01 4.3 39.7 54 -4.2 24.5
20:05 1017 30.03 847 25.01 4.1 39.4 54 -4.3 24.3
20:10 1017 30.03 847 25.01 4.3 39.8 53 -4.4 24.1
20:15 1017 30.03 847 25.01 4.5 40.1 52 -4.4 24.1
20:20 1017 30.03 847 25.01 4.7 40.4 52 -4.2 24.4
20:25 1017 30.03 847 25.01 4.6 40.3 52 -4.5 23.9
20:30 1017 30.03 847 25.01 4.8 40.7 51 -4.5 23.9
20:35 1018 30.06 847 25.01 4.9 40.8 52 -4.3 24.3
20:40 1017 30.03 847 25.01 4.8 40.6 53 -3.9 25
20:45 1017 30.03 847 25.01 4.7 40.5 53 -4.2 24.5
20:50 1017 30.03 847 25.01 4.7 40.4 52 -4.4 24
20:55 1018 30.06 847 25.01 4.8 40.7 52 -4.2 24.4
21:00 1018 30.06 847 25.01 4.8 40.6 52 -4.3 24.2
21:05 1018 30.06 847 25.01 4.8 40.6 51 -4.4 24.1
21:10 1018 30.06 847 25.01 4.7 40.5 53 -4 24.8
21:15 1018 30.06 847 25.01 4.5 40.2 53 -4.3 24.2
21:20 1018 30.06 847 25.01 4.6 40.2 52 -4.3 24.2
21:25 1018 30.06 847 25.01 4.6 40.3 52 -4.3 24.2
21:30 1018 30.06 847 25.01 4.6 40.3 53 -4.1 24.7
21:35 1018 30.06 847 25.01 4.8 40.6 51 -4.5 23.9
21:40 1018 30.06 847 25.01 4.8 40.7 52 -4.2 24.4
21:45 1018 30.06 847 25.01 4.8 40.6 51 -4.5 23.9
21:50 1018 30.06 847 25.01 4.8 40.7 52 -4.3 24.2
21:55 1018 30.06 847 25.01 4.6 40.3 53 -4.3 24.3
22:00 1018 30.06 847 25.01 4.4 40 53 -4.2 24.4
22:05 1018 30.06 847 25.01 4.4 40 53 -4.3 24.3
22:10 1018 30.06 847 25.01 4.5 40.2 52 -4.4 24
22:15 1018 30.06 847 25.01 4.8 40.6 52 -4.3 24.2
22:20 1018 30.06 847 25.01 4.8 40.7 52 -4.2 24.4
22:25 1018 30.06 847 25.01 4.7 40.5 51 -4.5 23.9
22:30 1018 30.06 847 25.01 4.7 40.4 53 -4.2 24.5
22:35 1018 30.06 847 25.01 4.6 40.2 52 -4.4 24.1
22:40 1018 30.06 847 25.01 5 41 50 -4.6 23.7
22:45 1018 30.06 847 25.01 5.1 41.3 51 -4.1 24.6
22:50 1018 30.06 847 25.01 5 41.1 51 -4.3 24.2
22:55 1018 30.06 847 25.01 5.1 41.1 50 -4.4 24
23:00 1018 30.06 847 25.01 5.2 41.4 50 -4.4 24.1
23:05 1018 30.06 847 25.01 5.2 41.3 50 -4.4 24.1
23:10 1018 30.06 847 25.01 5 41.1 49 -4.8 23.3
23:15 1018 30.06 847 25.01 5.1 41.1 51 -4.2 24.4
23:20 1018 30.06 847 25.01 4.9 40.7 51 -4.5 23.9
23:25 1018 30.06 847 25.01 4.9 40.8 52 -4.3 24.3
23:30 1018 30.06 848 25.04 4.8 40.7 52 -4.2 24.4
23:35 1018 30.06 848 25.04 4.8 40.6 51 -4.5 23.9
23:40 1018 30.06 848 25.04 4.8 40.7 51 -4.3 24.2
23:45 1018 30.06 848 25.04 4.9 40.8 52 -4.2 24.5
23:50 1018 30.06 848 25.04 4.7 40.5 52 -4.4 24
23:55 1018 30.06 848 25.04 4.8 40.6 53 -4.1 24.7
24:00 1018 30.06 848 25.04 4.8 40.6 53 -4.1 24.7